sensor_id;sensor_type;location;lat;lon;timestamp;P1;durP1;ratioP1;P2;durP2;ratioP2
80381;SDS011;69692;55.820;37.490;2024-01-30T00:02:14;7.38;;;4.72;;
80381;SDS011;69692;55.820;37.490;2024-01-30T00:04:40;8.30;;;5.38;;
80381;SDS011;69692;55.820;37.490;2024-01-30T00:07:05;10.23;;;6.97;;
80381;SDS011;69692;55.820;37.490;2024-01-30T00:09:31;7.28;;;4.53;;
80381;SDS011;69692;55.820;37.490;2024-01-30T00:11:57;8.50;;;6.22;;
80381;SDS011;69692;55.820;37.490;2024-01-30T00:14:23;10.55;;;6.43;;
80381;SDS011;69692;55.820;37.490;2024-01-30T00:16:50;9.27;;;6.05;;
80381;SDS011;69692;55.820;37.490;2024-01-30T00:19:16;8.57;;;4.65;;
80381;SDS011;69692;55.820;37.490;2024-01-30T00:21:43;8.45;;;5.03;;
80381;SDS011;69692;55.820;37.490;2024-01-30T00:24:09;10.95;;;5.00;;
80381;SDS011;69692;55.820;37.490;2024-01-30T00:26:35;8.73;;;5.78;;
80381;SDS011;69692;55.820;37.490;2024-01-30T00:29:01;6.90;;;4.70;;
80381;SDS011;69692;55.820;37.490;2024-01-30T00:31:27;10.93;;;6.10;;
80381;SDS011;69692;55.820;37.490;2024-01-30T00:33:53;7.05;;;5.10;;
80381;SDS011;69692;55.820;37.490;2024-01-30T00:36:18;9.93;;;6.28;;
80381;SDS011;69692;55.820;37.490;2024-01-30T00:38:44;9.90;;;6.18;;
80381;SDS011;69692;55.820;37.490;2024-01-30T00:41:10;7.05;;;5.20;;
80381;SDS011;69692;55.820;37.490;2024-01-30T00:43:36;7.78;;;4.75;;
80381;SDS011;69692;55.820;37.490;2024-01-30T00:46:02;8.68;;;5.47;;
80381;SDS011;69692;55.820;37.490;2024-01-30T00:48:28;9.45;;;5.82;;
80381;SDS011;69692;55.820;37.490;2024-01-30T00:50:54;8.13;;;4.53;;
80381;SDS011;69692;55.820;37.490;2024-01-30T00:53:20;9.00;;;5.65;;
80381;SDS011;69692;55.820;37.490;2024-01-30T00:55:46;6.47;;;4.57;;
80381;SDS011;69692;55.820;37.490;2024-01-30T00:58:13;7.10;;;4.72;;
80381;SDS011;69692;55.820;37.490;2024-01-30T01:00:39;5.28;;;3.35;;
80381;SDS011;69692;55.820;37.490;2024-01-30T01:03:05;9.15;;;6.75;;
80381;SDS011;69692;55.820;37.490;2024-01-30T01:05:31;8.35;;;5.20;;
80381;SDS011;69692;55.820;37.490;2024-01-30T01:07:57;8.50;;;4.85;;
80381;SDS011;69692;55.820;37.490;2024-01-30T01:10:23;10.55;;;5.75;;
80381;SDS011;69692;55.820;37.490;2024-01-30T01:12:49;10.35;;;5.07;;
80381;SDS011;69692;55.820;37.490;2024-01-30T01:15:15;8.55;;;5.05;;
80381;SDS011;69692;55.820;37.490;2024-01-30T01:17:41;6.47;;;4.35;;
80381;SDS011;69692;55.820;37.490;2024-01-30T01:20:07;9.20;;;4.82;;
80381;SDS011;69692;55.820;37.490;2024-01-30T01:22:34;9.30;;;5.50;;
80381;SDS011;69692;55.820;37.490;2024-01-30T01:25:00;9.48;;;6.65;;
80381;SDS011;69692;55.820;37.490;2024-01-30T01:27:29;9.05;;;5.78;;
80381;SDS011;69692;55.820;37.490;2024-01-30T01:29:57;8.65;;;5.57;;
80381;SDS011;69692;55.820;37.490;2024-01-30T01:32:23;11.32;;;6.47;;
80381;SDS011;69692;55.820;37.490;2024-01-30T01:34:49;7.97;;;4.85;;
80381;SDS011;69692;55.820;37.490;2024-01-30T01:37:15;7.78;;;5.72;;
80381;SDS011;69692;55.820;37.490;2024-01-30T01:39:41;11.90;;;6.18;;
80381;SDS011;69692;55.820;37.490;2024-01-30T01:42:06;9.50;;;5.47;;
80381;SDS011;69692;55.820;37.490;2024-01-30T01:44:32;8.82;;;5.25;;
80381;SDS011;69692;55.820;37.490;2024-01-30T01:46:58;8.50;;;5.63;;
80381;SDS011;69692;55.820;37.490;2024-01-30T01:49:24;7.32;;;5.22;;
80381;SDS011;69692;55.820;37.490;2024-01-30T01:51:53;7.80;;;4.78;;
80381;SDS011;69692;55.820;37.490;2024-01-30T01:54:22;7.72;;;5.32;;
80381;SDS011;69692;55.820;37.490;2024-01-30T01:56:51;8.65;;;5.30;;
80381;SDS011;69692;55.820;37.490;2024-01-30T01:59:18;9.77;;;5.82;;
80381;SDS011;69692;55.820;37.490;2024-01-30T02:01:46;8.30;;;5.00;;
80381;SDS011;69692;55.820;37.490;2024-01-30T02:04:15;9.90;;;5.63;;
80381;SDS011;69692;55.820;37.490;2024-01-30T02:06:43;8.18;;;5.10;;
80381;SDS011;69692;55.820;37.490;2024-01-30T02:09:11;9.38;;;6.50;;
80381;SDS011;69692;55.820;37.490;2024-01-30T02:11:37;10.10;;;4.95;;
80381;SDS011;69692;55.820;37.490;2024-01-30T02:14:06;10.10;;;5.60;;
80381;SDS011;69692;55.820;37.490;2024-01-30T02:16:32;9.25;;;5.88;;
80381;SDS011;69692;55.820;37.490;2024-01-30T02:18:58;8.88;;;5.75;;
80381;SDS011;69692;55.820;37.490;2024-01-30T02:21:34;7.05;;;5.03;;
80381;SDS011;69692;55.820;37.490;2024-01-30T02:24:01;9.20;;;5.72;;
80381;SDS011;69692;55.820;37.490;2024-01-30T02:26:28;8.60;;;6.95;;
80381;SDS011;69692;55.820;37.490;2024-01-30T02:28:55;11.07;;;7.68;;
80381;SDS011;69692;55.820;37.490;2024-01-30T02:31:21;9.45;;;5.45;;
80381;SDS011;69692;55.820;37.490;2024-01-30T02:33:46;8.32;;;5.00;;
80381;SDS011;69692;55.820;37.490;2024-01-30T02:36:13;9.07;;;5.45;;
80381;SDS011;69692;55.820;37.490;2024-01-30T02:38:41;8.05;;;5.15;;
80381;SDS011;69692;55.820;37.490;2024-01-30T02:41:07;11.27;;;5.40;;
80381;SDS011;69692;55.820;37.490;2024-01-30T02:43:33;8.80;;;5.35;;
80381;SDS011;69692;55.820;37.490;2024-01-30T02:45:59;10.27;;;6.30;;
80381;SDS011;69692;55.820;37.490;2024-01-30T02:48:26;7.38;;;5.40;;
80381;SDS011;69692;55.820;37.490;2024-01-30T02:50:52;12.20;;;5.75;;
80381;SDS011;69692;55.820;37.490;2024-01-30T02:53:18;9.30;;;5.45;;
80381;SDS011;69692;55.820;37.490;2024-01-30T02:55:44;8.45;;;5.55;;
80381;SDS011;69692;55.820;37.490;2024-01-30T02:58:10;9.85;;;5.03;;
80381;SDS011;69692;55.820;37.490;2024-01-30T03:00:36;13.23;;;5.38;;
80381;SDS011;69692;55.820;37.490;2024-01-30T03:03:02;9.13;;;4.85;;
80381;SDS011;69692;55.820;37.490;2024-01-30T03:05:28;9.15;;;5.60;;
80381;SDS011;69692;55.820;37.490;2024-01-30T03:07:54;8.57;;;5.60;;
80381;SDS011;69692;55.820;37.490;2024-01-30T03:10:21;6.97;;;4.97;;
80381;SDS011;69692;55.820;37.490;2024-01-30T03:12:47;10.05;;;6.93;;
80381;SDS011;69692;55.820;37.490;2024-01-30T03:15:13;8.25;;;5.18;;
80381;SDS011;69692;55.820;37.490;2024-01-30T03:17:38;8.90;;;5.40;;
80381;SDS011;69692;55.820;37.490;2024-01-30T03:20:04;8.57;;;5.32;;
80381;SDS011;69692;55.820;37.490;2024-01-30T03:22:32;9.00;;;4.75;;
80381;SDS011;69692;55.820;37.490;2024-01-30T03:24:58;7.20;;;4.30;;
80381;SDS011;69692;55.820;37.490;2024-01-30T03:27:24;6.20;;;3.53;;
80381;SDS011;69692;55.820;37.490;2024-01-30T03:29:50;8.80;;;5.93;;
80381;SDS011;69692;55.820;37.490;2024-01-30T03:32:15;9.88;;;5.22;;
80381;SDS011;69692;55.820;37.490;2024-01-30T03:34:41;14.98;;;8.38;;
80381;SDS011;69692;55.820;37.490;2024-01-30T03:37:07;11.20;;;6.38;;
80381;SDS011;69692;55.820;37.490;2024-01-30T03:39:33;10.68;;;6.60;;
80381;SDS011;69692;55.820;37.490;2024-01-30T03:41:59;8.02;;;4.13;;
80381;SDS011;69692;55.820;37.490;2024-01-30T03:44:26;12.32;;;6.32;;
80381;SDS011;69692;55.820;37.490;2024-01-30T03:46:52;10.15;;;5.28;;
80381;SDS011;69692;55.820;37.490;2024-01-30T03:49:18;10.00;;;5.60;;
80381;SDS011;69692;55.820;37.490;2024-01-30T03:51:44;7.63;;;5.10;;
80381;SDS011;69692;55.820;37.490;2024-01-30T03:54:10;12.73;;;7.32;;
80381;SDS011;69692;55.820;37.490;2024-01-30T03:56:36;9.38;;;6.18;;
80381;SDS011;69692;55.820;37.490;2024-01-30T03:59:02;5.03;;;4.05;;
80381;SDS011;69692;55.820;37.490;2024-01-30T04:01:28;8.65;;;4.72;;
80381;SDS011;69692;55.820;37.490;2024-01-30T04:03:54;8.25;;;5.63;;
80381;SDS011;69692;55.820;37.490;2024-01-30T04:06:20;7.93;;;5.43;;
80381;SDS011;69692;55.820;37.490;2024-01-30T04:08:46;8.50;;;5.53;;
80381;SDS011;69692;55.820;37.490;2024-01-30T04:11:12;7.20;;;4.75;;
80381;SDS011;69692;55.820;37.490;2024-01-30T04:13:38;8.98;;;5.30;;
80381;SDS011;69692;55.820;37.490;2024-01-30T04:16:04;7.05;;;4.20;;
80381;SDS011;69692;55.820;37.490;2024-01-30T04:18:30;7.68;;;4.32;;
80381;SDS011;69692;55.820;37.490;2024-01-30T04:20:57;6.20;;;4.68;;
80381;SDS011;69692;55.820;37.490;2024-01-30T04:23:23;8.57;;;5.47;;
80381;SDS011;69692;55.820;37.490;2024-01-30T04:25:49;9.85;;;6.47;;
80381;SDS011;69692;55.820;37.490;2024-01-30T04:28:15;5.70;;;4.15;;
80381;SDS011;69692;55.820;37.490;2024-01-30T04:30:41;5.38;;;3.75;;
80381;SDS011;69692;55.820;37.490;2024-01-30T04:33:07;7.68;;;4.57;;
80381;SDS011;69692;55.820;37.490;2024-01-30T04:35:32;8.50;;;5.63;;
80381;SDS011;69692;55.820;37.490;2024-01-30T04:37:58;10.48;;;5.82;;
80381;SDS011;69692;55.820;37.490;2024-01-30T04:40:24;11.57;;;6.25;;
80381;SDS011;69692;55.820;37.490;2024-01-30T04:42:50;9.63;;;5.63;;
80381;SDS011;69692;55.820;37.490;2024-01-30T04:45:16;8.88;;;5.57;;
80381;SDS011;69692;55.820;37.490;2024-01-30T04:47:42;7.95;;;4.90;;
80381;SDS011;69692;55.820;37.490;2024-01-30T04:50:09;9.60;;;5.78;;
80381;SDS011;69692;55.820;37.490;2024-01-30T04:52:35;8.77;;;5.28;;
80381;SDS011;69692;55.820;37.490;2024-01-30T04:55:02;9.18;;;6.20;;
80381;SDS011;69692;55.820;37.490;2024-01-30T04:57:30;9.75;;;5.88;;
80381;SDS011;69692;55.820;37.490;2024-01-30T04:59:57;9.68;;;6.38;;
80381;SDS011;69692;55.820;37.490;2024-01-30T05:02:23;11.68;;;6.30;;
80381;SDS011;69692;55.820;37.490;2024-01-30T05:04:48;9.13;;;5.30;;
80381;SDS011;69692;55.820;37.490;2024-01-30T05:07:14;8.93;;;6.20;;
80381;SDS011;69692;55.820;37.490;2024-01-30T05:09:40;10.70;;;6.72;;
80381;SDS011;69692;55.820;37.490;2024-01-30T05:12:06;8.57;;;5.88;;
80381;SDS011;69692;55.820;37.490;2024-01-30T05:14:32;11.85;;;6.97;;
80381;SDS011;69692;55.820;37.490;2024-01-30T05:16:58;10.18;;;5.82;;
80381;SDS011;69692;55.820;37.490;2024-01-30T05:19:24;9.82;;;6.22;;
80381;SDS011;69692;55.820;37.490;2024-01-30T05:21:50;12.43;;;6.75;;
80381;SDS011;69692;55.820;37.490;2024-01-30T05:24:16;11.32;;;6.63;;
80381;SDS011;69692;55.820;37.490;2024-01-30T05:26:42;9.57;;;5.68;;
80381;SDS011;69692;55.820;37.490;2024-01-30T05:29:07;10.68;;;5.32;;
80381;SDS011;69692;55.820;37.490;2024-01-30T05:31:34;10.55;;;6.75;;
80381;SDS011;69692;55.820;37.490;2024-01-30T05:34:00;8.52;;;5.13;;
80381;SDS011;69692;55.820;37.490;2024-01-30T05:36:26;9.50;;;6.18;;
80381;SDS011;69692;55.820;37.490;2024-01-30T05:38:52;15.38;;;7.93;;
80381;SDS011;69692;55.820;37.490;2024-01-30T05:41:19;12.40;;;7.28;;
80381;SDS011;69692;55.820;37.490;2024-01-30T05:43:46;9.68;;;6.13;;
80381;SDS011;69692;55.820;37.490;2024-01-30T05:46:13;10.00;;;4.55;;
80381;SDS011;69692;55.820;37.490;2024-01-30T05:48:39;11.70;;;6.30;;
80381;SDS011;69692;55.820;37.490;2024-01-30T05:51:06;14.38;;;7.38;;
80381;SDS011;69692;55.820;37.490;2024-01-30T05:53:33;12.57;;;6.75;;
80381;SDS011;69692;55.820;37.490;2024-01-30T05:56:03;13.50;;;6.80;;
80381;SDS011;69692;55.820;37.490;2024-01-30T05:58:29;11.88;;;6.57;;
80381;SDS011;69692;55.820;37.490;2024-01-30T06:00:56;13.80;;;7.07;;
80381;SDS011;69692;55.820;37.490;2024-01-30T06:03:23;13.85;;;7.25;;
80381;SDS011;69692;55.820;37.490;2024-01-30T06:05:49;11.18;;;7.43;;
80381;SDS011;69692;55.820;37.490;2024-01-30T06:08:15;12.73;;;6.10;;
80381;SDS011;69692;55.820;37.490;2024-01-30T06:10:40;12.98;;;7.35;;
80381;SDS011;69692;55.820;37.490;2024-01-30T06:13:08;13.00;;;7.60;;
80381;SDS011;69692;55.820;37.490;2024-01-30T06:15:34;12.10;;;6.70;;
80381;SDS011;69692;55.820;37.490;2024-01-30T06:18:00;11.48;;;7.03;;
80381;SDS011;69692;55.820;37.490;2024-01-30T06:20:25;13.38;;;7.10;;
80381;SDS011;69692;55.820;37.490;2024-01-30T06:22:51;12.05;;;7.10;;
80381;SDS011;69692;55.820;37.490;2024-01-30T06:25:17;15.55;;;8.13;;
80381;SDS011;69692;55.820;37.490;2024-01-30T06:27:43;14.93;;;7.13;;
80381;SDS011;69692;55.820;37.490;2024-01-30T06:30:09;12.75;;;5.65;;
80381;SDS011;69692;55.820;37.490;2024-01-30T06:32:35;11.05;;;7.25;;
80381;SDS011;69692;55.820;37.490;2024-01-30T06:35:01;7.82;;;4.60;;
80381;SDS011;69692;55.820;37.490;2024-01-30T06:37:29;13.27;;;6.88;;
80381;SDS011;69692;55.820;37.490;2024-01-30T06:39:55;12.57;;;6.47;;
80381;SDS011;69692;55.820;37.490;2024-01-30T06:42:21;11.88;;;6.43;;
80381;SDS011;69692;55.820;37.490;2024-01-30T06:44:47;12.43;;;7.00;;
80381;SDS011;69692;55.820;37.490;2024-01-30T06:47:13;14.85;;;6.50;;
80381;SDS011;69692;55.820;37.490;2024-01-30T06:49:39;12.05;;;6.53;;
80381;SDS011;69692;55.820;37.490;2024-01-30T06:52:08;14.35;;;7.18;;
80381;SDS011;69692;55.820;37.490;2024-01-30T06:54:34;14.27;;;6.65;;
80381;SDS011;69692;55.820;37.490;2024-01-30T06:57:00;13.50;;;7.35;;
80381;SDS011;69692;55.820;37.490;2024-01-30T06:59:26;15.90;;;7.10;;
80381;SDS011;69692;55.820;37.490;2024-01-30T07:01:52;11.38;;;5.93;;
80381;SDS011;69692;55.820;37.490;2024-01-30T07:04:17;12.18;;;6.45;;
80381;SDS011;69692;55.820;37.490;2024-01-30T07:06:44;11.45;;;6.63;;
80381;SDS011;69692;55.820;37.490;2024-01-30T07:09:10;11.48;;;7.97;;
80381;SDS011;69692;55.820;37.490;2024-01-30T07:11:36;12.35;;;7.90;;
80381;SDS011;69692;55.820;37.490;2024-01-30T07:14:02;13.60;;;8.20;;
80381;SDS011;69692;55.820;37.490;2024-01-30T07:16:31;12.60;;;7.75;;
80381;SDS011;69692;55.820;37.490;2024-01-30T07:18:56;11.43;;;7.18;;
80381;SDS011;69692;55.820;37.490;2024-01-30T07:21:22;13.10;;;6.72;;
80381;SDS011;69692;55.820;37.490;2024-01-30T07:23:55;14.85;;;7.20;;
80381;SDS011;69692;55.820;37.490;2024-01-30T07:26:21;12.27;;;7.10;;
80381;SDS011;69692;55.820;37.490;2024-01-30T07:28:47;14.00;;;8.10;;
80381;SDS011;69692;55.820;37.490;2024-01-30T07:31:13;12.93;;;6.57;;
80381;SDS011;69692;55.820;37.490;2024-01-30T07:33:39;15.07;;;6.50;;
80381;SDS011;69692;55.820;37.490;2024-01-30T07:36:05;10.02;;;6.07;;
80381;SDS011;69692;55.820;37.490;2024-01-30T07:38:31;11.23;;;7.45;;
80381;SDS011;69692;55.820;37.490;2024-01-30T07:40:58;11.40;;;4.90;;
80381;SDS011;69692;55.820;37.490;2024-01-30T07:43:24;11.40;;;6.30;;
80381;SDS011;69692;55.820;37.490;2024-01-30T07:45:50;13.15;;;6.93;;
80381;SDS011;69692;55.820;37.490;2024-01-30T07:48:16;12.20;;;6.55;;
80381;SDS011;69692;55.820;37.490;2024-01-30T07:50:42;16.00;;;7.25;;
80381;SDS011;69692;55.820;37.490;2024-01-30T07:53:08;14.43;;;7.63;;
80381;SDS011;69692;55.820;37.490;2024-01-30T07:55:39;14.65;;;7.32;;
80381;SDS011;69692;55.820;37.490;2024-01-30T07:58:39;21.35;;;8.05;;
80381;SDS011;69692;55.820;37.490;2024-01-30T08:01:05;10.52;;;7.18;;
80381;SDS011;69692;55.820;37.490;2024-01-30T08:03:30;8.90;;;5.95;;
80381;SDS011;69692;55.820;37.490;2024-01-30T08:05:56;15.27;;;8.05;;
80381;SDS011;69692;55.820;37.490;2024-01-30T08:08:22;11.23;;;6.28;;
80381;SDS011;69692;55.820;37.490;2024-01-30T08:10:48;11.95;;;7.05;;
80381;SDS011;69692;55.820;37.490;2024-01-30T08:13:15;10.98;;;6.47;;
80381;SDS011;69692;55.820;37.490;2024-01-30T08:15:41;8.63;;;5.53;;
80381;SDS011;69692;55.820;37.490;2024-01-30T08:18:07;15.73;;;7.70;;
80381;SDS011;69692;55.820;37.490;2024-01-30T08:20:33;12.93;;;7.47;;
80381;SDS011;69692;55.820;37.490;2024-01-30T08:22:58;12.10;;;7.47;;
80381;SDS011;69692;55.820;37.490;2024-01-30T08:25:25;14.93;;;7.30;;
80381;SDS011;69692;55.820;37.490;2024-01-30T08:27:51;10.68;;;6.70;;
80381;SDS011;69692;55.820;37.490;2024-01-30T08:30:17;11.40;;;7.03;;
80381;SDS011;69692;55.820;37.490;2024-01-30T08:32:43;9.82;;;6.07;;
80381;SDS011;69692;55.820;37.490;2024-01-30T08:35:09;12.68;;;6.13;;
80381;SDS011;69692;55.820;37.490;2024-01-30T08:37:35;15.20;;;7.93;;
80381;SDS011;69692;55.820;37.490;2024-01-30T08:40:01;12.77;;;7.00;;
80381;SDS011;69692;55.820;37.490;2024-01-30T08:42:29;11.05;;;6.90;;
80381;SDS011;69692;55.820;37.490;2024-01-30T08:44:55;11.88;;;6.47;;
80381;SDS011;69692;55.820;37.490;2024-01-30T08:47:21;10.90;;;6.90;;
80381;SDS011;69692;55.820;37.490;2024-01-30T08:49:47;10.00;;;6.50;;
80381;SDS011;69692;55.820;37.490;2024-01-30T08:52:13;13.95;;;7.47;;
80381;SDS011;69692;55.820;37.490;2024-01-30T08:54:39;13.32;;;7.93;;
80381;SDS011;69692;55.820;37.490;2024-01-30T08:57:05;12.80;;;6.93;;
80381;SDS011;69692;55.820;37.490;2024-01-30T08:59:30;13.32;;;7.78;;
80381;SDS011;69692;55.820;37.490;2024-01-30T09:01:57;11.40;;;6.72;;
80381;SDS011;69692;55.820;37.490;2024-01-30T09:04:24;9.98;;;6.22;;
80381;SDS011;69692;55.820;37.490;2024-01-30T09:06:51;14.55;;;7.82;;
80381;SDS011;69692;55.820;37.490;2024-01-30T09:09:17;15.85;;;7.07;;
80381;SDS011;69692;55.820;37.490;2024-01-30T09:11:43;12.95;;;7.30;;
80381;SDS011;69692;55.820;37.490;2024-01-30T09:14:10;13.48;;;7.68;;
80381;SDS011;69692;55.820;37.490;2024-01-30T09:16:36;13.82;;;8.57;;
80381;SDS011;69692;55.820;37.490;2024-01-30T09:19:01;13.80;;;8.02;;
80381;SDS011;69692;55.820;37.490;2024-01-30T09:21:27;13.27;;;7.85;;
80381;SDS011;69692;55.820;37.490;2024-01-30T09:24:01;12.38;;;7.50;;
80381;SDS011;69692;55.820;37.490;2024-01-30T09:26:29;16.88;;;7.75;;
80381;SDS011;69692;55.820;37.490;2024-01-30T09:28:55;10.93;;;6.82;;
80381;SDS011;69692;55.820;37.490;2024-01-30T09:31:21;14.15;;;7.45;;
80381;SDS011;69692;55.820;37.490;2024-01-30T09:33:48;16.98;;;6.57;;
80381;SDS011;69692;55.820;37.490;2024-01-30T09:36:14;20.10;;;9.13;;
80381;SDS011;69692;55.820;37.490;2024-01-30T09:38:44;13.23;;;6.63;;
80381;SDS011;69692;55.820;37.490;2024-01-30T09:41:10;16.88;;;7.53;;
80381;SDS011;69692;55.820;37.490;2024-01-30T09:43:37;12.93;;;6.95;;
80381;SDS011;69692;55.820;37.490;2024-01-30T09:46:06;13.85;;;7.72;;
80381;SDS011;69692;55.820;37.490;2024-01-30T09:48:37;15.55;;;7.75;;
80381;SDS011;69692;55.820;37.490;2024-01-30T09:51:04;13.65;;;7.47;;
80381;SDS011;69692;55.820;37.490;2024-01-30T09:53:30;11.15;;;6.82;;
80381;SDS011;69692;55.820;37.490;2024-01-30T09:55:56;16.17;;;6.82;;
80381;SDS011;69692;55.820;37.490;2024-01-30T09:58:23;18.08;;;6.78;;
80381;SDS011;69692;55.820;37.490;2024-01-30T10:01:07;19.50;;;8.13;;
80381;SDS011;69692;55.820;37.490;2024-01-30T10:03:52;12.68;;;7.10;;
80381;SDS011;69692;55.820;37.490;2024-01-30T10:06:19;16.70;;;9.02;;
80381;SDS011;69692;55.820;37.490;2024-01-30T10:08:46;16.83;;;9.73;;
80381;SDS011;69692;55.820;37.490;2024-01-30T10:11:12;14.05;;;8.15;;
80381;SDS011;69692;55.820;37.490;2024-01-30T10:13:38;11.02;;;6.72;;
80381;SDS011;69692;55.820;37.490;2024-01-30T10:16:04;12.23;;;7.15;;
80381;SDS011;69692;55.820;37.490;2024-01-30T10:18:50;9.85;;;5.78;;
80381;SDS011;69692;55.820;37.490;2024-01-30T10:21:16;13.98;;;8.30;;
80381;SDS011;69692;55.820;37.490;2024-01-30T10:23:43;13.95;;;7.82;;
80381;SDS011;69692;55.820;37.490;2024-01-30T10:26:10;15.25;;;8.73;;
80381;SDS011;69692;55.820;37.490;2024-01-30T10:28:36;27.48;;;7.53;;
80381;SDS011;69692;55.820;37.490;2024-01-30T10:31:02;14.27;;;8.50;;
80381;SDS011;69692;55.820;37.490;2024-01-30T10:33:31;17.25;;;7.53;;
80381;SDS011;69692;55.820;37.490;2024-01-30T10:36:01;16.65;;;8.90;;
80381;SDS011;69692;55.820;37.490;2024-01-30T10:38:28;15.18;;;8.68;;
80381;SDS011;69692;55.820;37.490;2024-01-30T10:41:00;11.55;;;7.80;;
80381;SDS011;69692;55.820;37.490;2024-01-30T10:43:35;15.00;;;7.18;;
80381;SDS011;69692;55.820;37.490;2024-01-30T10:46:11;11.48;;;6.57;;
80381;SDS011;69692;55.820;37.490;2024-01-30T10:48:54;14.95;;;8.40;;
80381;SDS011;69692;55.820;37.490;2024-01-30T10:51:27;17.95;;;8.07;;
80381;SDS011;69692;55.820;37.490;2024-01-30T10:53:53;16.50;;;9.57;;
80381;SDS011;69692;55.820;37.490;2024-01-30T10:56:21;15.35;;;7.72;;
80381;SDS011;69692;55.820;37.490;2024-01-30T10:58:52;13.85;;;7.53;;
80381;SDS011;69692;55.820;37.490;2024-01-30T11:01:19;15.43;;;9.82;;
80381;SDS011;69692;55.820;37.490;2024-01-30T11:03:54;12.10;;;7.45;;
80381;SDS011;69692;55.820;37.490;2024-01-30T11:06:24;11.05;;;6.68;;
80381;SDS011;69692;55.820;37.490;2024-01-30T11:09:00;15.30;;;7.70;;
80381;SDS011;69692;55.820;37.490;2024-01-30T11:11:50;14.25;;;6.70;;
80381;SDS011;69692;55.820;37.490;2024-01-30T11:14:23;11.63;;;7.20;;
80381;SDS011;69692;55.820;37.490;2024-01-30T11:16:50;12.75;;;6.95;;
80381;SDS011;69692;55.820;37.490;2024-01-30T11:19:22;15.57;;;7.85;;
80381;SDS011;69692;55.820;37.490;2024-01-30T11:21:50;16.23;;;7.68;;
80381;SDS011;69692;55.820;37.490;2024-01-30T11:24:19;14.20;;;7.38;;
80381;SDS011;69692;55.820;37.490;2024-01-30T11:26:48;14.23;;;7.65;;
80381;SDS011;69692;55.820;37.490;2024-01-30T11:29:24;15.05;;;7.60;;
80381;SDS011;69692;55.820;37.490;2024-01-30T11:32:00;14.10;;;7.55;;
80381;SDS011;69692;55.820;37.490;2024-01-30T11:34:26;12.27;;;7.15;;
80381;SDS011;69692;55.820;37.490;2024-01-30T11:36:52;14.40;;;8.07;;
80381;SDS011;69692;55.820;37.490;2024-01-30T11:39:24;15.85;;;8.25;;
80381;SDS011;69692;55.820;37.490;2024-01-30T11:41:52;14.65;;;6.75;;
80381;SDS011;69692;55.820;37.490;2024-01-30T11:44:19;13.45;;;7.15;;
80381;SDS011;69692;55.820;37.490;2024-01-30T11:46:49;13.38;;;7.35;;
80381;SDS011;69692;55.820;37.490;2024-01-30T11:49:16;15.55;;;7.40;;
80381;SDS011;69692;55.820;37.490;2024-01-30T11:51:45;12.48;;;7.35;;
80381;SDS011;69692;55.820;37.490;2024-01-30T11:54:14;13.07;;;7.68;;
80381;SDS011;69692;55.820;37.490;2024-01-30T11:56:43;14.70;;;7.82;;
80381;SDS011;69692;55.820;37.490;2024-01-30T11:59:09;15.20;;;7.93;;
80381;SDS011;69692;55.820;37.490;2024-01-30T12:01:35;12.75;;;6.32;;
80381;SDS011;69692;55.820;37.490;2024-01-30T12:04:01;16.35;;;9.63;;
80381;SDS011;69692;55.820;37.490;2024-01-30T12:06:28;14.90;;;7.60;;
80381;SDS011;69692;55.820;37.490;2024-01-30T12:09:02;14.13;;;7.65;;
80381;SDS011;69692;55.820;37.490;2024-01-30T12:11:43;13.90;;;7.72;;
80381;SDS011;69692;55.820;37.490;2024-01-30T12:14:12;18.95;;;7.60;;
80381;SDS011;69692;55.820;37.490;2024-01-30T12:16:39;14.98;;;7.80;;
80381;SDS011;69692;55.820;37.490;2024-01-30T12:19:05;13.95;;;6.90;;
80381;SDS011;69692;55.820;37.490;2024-01-30T12:21:31;14.45;;;6.82;;
80381;SDS011;69692;55.820;37.490;2024-01-30T12:23:57;16.42;;;7.63;;
80381;SDS011;69692;55.820;37.490;2024-01-30T12:26:24;13.35;;;7.07;;
80381;SDS011;69692;55.820;37.490;2024-01-30T12:28:56;13.88;;;7.70;;
80381;SDS011;69692;55.820;37.490;2024-01-30T12:31:27;17.77;;;8.43;;
80381;SDS011;69692;55.820;37.490;2024-01-30T12:33:54;19.27;;;8.55;;
80381;SDS011;69692;55.820;37.490;2024-01-30T12:36:21;11.93;;;6.15;;
80381;SDS011;69692;55.820;37.490;2024-01-30T12:38:48;17.10;;;8.25;;
80381;SDS011;69692;55.820;37.490;2024-01-30T12:41:14;15.38;;;8.27;;
80381;SDS011;69692;55.820;37.490;2024-01-30T12:43:40;12.43;;;7.43;;
80381;SDS011;69692;55.820;37.490;2024-01-30T12:46:06;15.90;;;7.93;;
80381;SDS011;69692;55.820;37.490;2024-01-30T12:48:31;12.75;;;8.27;;
80381;SDS011;69692;55.820;37.490;2024-01-30T12:50:59;17.45;;;8.32;;
80381;SDS011;69692;55.820;37.490;2024-01-30T12:53:25;11.73;;;6.85;;
80381;SDS011;69692;55.820;37.490;2024-01-30T12:55:51;15.20;;;8.68;;
80381;SDS011;69692;55.820;37.490;2024-01-30T12:58:17;18.35;;;8.55;;
80381;SDS011;69692;55.820;37.490;2024-01-30T13:00:43;14.65;;;7.75;;
80381;SDS011;69692;55.820;37.490;2024-01-30T13:03:10;13.20;;;7.22;;
80381;SDS011;69692;55.820;37.490;2024-01-30T13:05:36;15.00;;;7.63;;
80381;SDS011;69692;55.820;37.490;2024-01-30T13:08:02;15.13;;;7.45;;
80381;SDS011;69692;55.820;37.490;2024-01-30T13:10:28;15.80;;;8.57;;
80381;SDS011;69692;55.820;37.490;2024-01-30T13:12:54;15.23;;;7.65;;
80381;SDS011;69692;55.820;37.490;2024-01-30T13:15:20;14.18;;;8.30;;
80381;SDS011;69692;55.820;37.490;2024-01-30T13:17:48;15.05;;;8.52;;
80381;SDS011;69692;55.820;37.490;2024-01-30T13:20:15;15.07;;;8.27;;
80381;SDS011;69692;55.820;37.490;2024-01-30T13:22:46;16.35;;;8.25;;
80381;SDS011;69692;55.820;37.490;2024-01-30T13:25:14;14.55;;;7.90;;
80381;SDS011;69692;55.820;37.490;2024-01-30T13:27:39;16.77;;;8.65;;
80381;SDS011;69692;55.820;37.490;2024-01-30T13:30:06;13.48;;;8.38;;
80381;SDS011;69692;55.820;37.490;2024-01-30T13:32:37;15.10;;;7.88;;
80381;SDS011;69692;55.820;37.490;2024-01-30T13:35:03;17.83;;;9.02;;
80381;SDS011;69692;55.820;37.490;2024-01-30T13:37:31;14.70;;;8.00;;
80381;SDS011;69692;55.820;37.490;2024-01-30T13:39:57;15.45;;;8.95;;
80381;SDS011;69692;55.820;37.490;2024-01-30T13:42:22;16.33;;;8.32;;
80381;SDS011;69692;55.820;37.490;2024-01-30T13:44:49;16.02;;;8.63;;
80381;SDS011;69692;55.820;37.490;2024-01-30T13:47:16;16.13;;;9.15;;
80381;SDS011;69692;55.820;37.490;2024-01-30T13:49:44;19.98;;;10.20;;
80381;SDS011;69692;55.820;37.490;2024-01-30T13:52:10;15.75;;;8.73;;
80381;SDS011;69692;55.820;37.490;2024-01-30T13:54:36;14.05;;;8.10;;
80381;SDS011;69692;55.820;37.490;2024-01-30T13:57:02;19.50;;;8.73;;
80381;SDS011;69692;55.820;37.490;2024-01-30T13:59:28;18.92;;;9.07;;
80381;SDS011;69692;55.820;37.490;2024-01-30T14:01:54;16.38;;;10.23;;
80381;SDS011;69692;55.820;37.490;2024-01-30T14:04:20;21.15;;;11.32;;
80381;SDS011;69692;55.820;37.490;2024-01-30T14:06:46;15.65;;;8.52;;
80381;SDS011;69692;55.820;37.490;2024-01-30T14:09:12;16.00;;;8.63;;
80381;SDS011;69692;55.820;37.490;2024-01-30T14:11:41;19.92;;;9.07;;
80381;SDS011;69692;55.820;37.490;2024-01-30T14:14:08;15.50;;;8.55;;
80381;SDS011;69692;55.820;37.490;2024-01-30T14:16:34;20.85;;;9.45;;
80381;SDS011;69692;55.820;37.490;2024-01-30T14:19:00;15.75;;;7.72;;
80381;SDS011;69692;55.820;37.490;2024-01-30T14:21:26;15.63;;;8.73;;
80381;SDS011;69692;55.820;37.490;2024-01-30T14:23:52;14.63;;;7.78;;
80381;SDS011;69692;55.820;37.490;2024-01-30T14:26:18;14.07;;;7.20;;